sensor_id;sensor_type;location;lat;lon;timestamp;P1;durP1;ratioP1;P2;durP2;ratioP2
55732;SDS011;41637;52.364;9.910;2022-12-10T00:01:37;57.10;;;23.60;;
55732;SDS011;41637;52.364;9.910;2022-12-10T00:04:04;57.30;;;21.90;;
55732;SDS011;41637;52.364;9.910;2022-12-10T00:06:32;54.90;;;22.70;;
55732;SDS011;41637;52.364;9.910;2022-12-10T00:09:00;51.70;;;21.10;;
55732;SDS011;41637;52.364;9.910;2022-12-10T00:11:27;55.30;;;22.50;;
55732;SDS011;41637;52.364;9.910;2022-12-10T00:13:54;51.90;;;21.90;;
55732;SDS011;41637;52.364;9.910;2022-12-10T00:16:22;58.00;;;22.10;;
55732;SDS011;41637;52.364;9.910;2022-12-10T00:18:51;59.00;;;23.20;;
55732;SDS011;41637;52.364;9.910;2022-12-10T00:21:19;55.90;;;22.80;;
55732;SDS011;41637;52.364;9.910;2022-12-10T00:23:47;68.90;;;24.50;;
55732;SDS011;41637;52.364;9.910;2022-12-10T00:26:16;61.70;;;23.60;;
55732;SDS011;41637;52.364;9.910;2022-12-10T00:28:44;56.80;;;22.20;;
55732;SDS011;41637;52.364;9.910;2022-12-10T00:31:13;59.60;;;24.40;;
55732;SDS011;41637;52.364;9.910;2022-12-10T00:33:42;59.20;;;23.70;;
55732;SDS011;41637;52.364;9.910;2022-12-10T00:36:11;59.50;;;25.20;;
55732;SDS011;41637;52.364;9.910;2022-12-10T00:38:42;65.20;;;25.60;;
55732;SDS011;41637;52.364;9.910;2022-12-10T00:41:11;64.60;;;26.70;;
55732;SDS011;41637;52.364;9.910;2022-12-10T00:43:38;61.20;;;25.60;;
55732;SDS011;41637;52.364;9.910;2022-12-10T00:46:05;64.50;;;26.20;;
55732;SDS011;41637;52.364;9.910;2022-12-10T00:48:32;57.60;;;24.80;;
55732;SDS011;41637;52.364;9.910;2022-12-10T00:51:00;57.90;;;24.50;;
55732;SDS011;41637;52.364;9.910;2022-12-10T00:53:34;56.50;;;24.90;;
55732;SDS011;41637;52.364;9.910;2022-12-10T00:56:02;56.30;;;23.90;;
55732;SDS011;41637;52.364;9.910;2022-12-10T00:58:30;51.00;;;21.70;;
55732;SDS011;41637;52.364;9.910;2022-12-10T01:01:08;51.50;;;22.20;;
55732;SDS011;41637;52.364;9.910;2022-12-10T01:03:41;48.90;;;22.00;;
55732;SDS011;41637;52.364;9.910;2022-12-10T01:06:30;48.20;;;22.30;;
55732;SDS011;41637;52.364;9.910;2022-12-10T01:09:00;44.30;;;21.00;;
55732;SDS011;41637;52.364;9.910;2022-12-10T01:11:29;47.90;;;22.00;;
55732;SDS011;41637;52.364;9.910;2022-12-10T01:13:58;48.60;;;22.10;;
55732;SDS011;41637;52.364;9.910;2022-12-10T01:16:25;48.20;;;22.20;;
55732;SDS011;41637;52.364;9.910;2022-12-10T01:18:56;53.30;;;23.00;;
55732;SDS011;41637;52.364;9.910;2022-12-10T01:21:24;47.60;;;22.50;;
55732;SDS011;41637;52.364;9.910;2022-12-10T01:23:52;48.40;;;23.30;;
55732;SDS011;41637;52.364;9.910;2022-12-10T01:26:20;46.40;;;21.60;;
55732;SDS011;41637;52.364;9.910;2022-12-10T01:28:49;45.00;;;21.40;;
55732;SDS011;41637;52.364;9.910;2022-12-10T01:31:18;45.50;;;20.40;;
55732;SDS011;41637;52.364;9.910;2022-12-10T01:33:47;44.30;;;21.10;;
55732;SDS011;41637;52.364;9.910;2022-12-10T01:36:15;49.70;;;22.30;;
55732;SDS011;41637;52.364;9.910;2022-12-10T01:38:46;47.60;;;22.40;;
55732;SDS011;41637;52.364;9.910;2022-12-10T01:41:17;44.40;;;21.20;;
55732;SDS011;41637;52.364;9.910;2022-12-10T01:46:27;47.10;;;20.60;;
55732;SDS011;41637;52.364;9.910;2022-12-10T01:48:56;45.10;;;20.70;;
55732;SDS011;41637;52.364;9.910;2022-12-10T01:51:24;45.20;;;20.40;;
55732;SDS011;41637;52.364;9.910;2022-12-10T01:53:52;41.50;;;19.70;;
55732;SDS011;41637;52.364;9.910;2022-12-10T01:56:19;39.70;;;18.30;;
55732;SDS011;41637;52.364;9.910;2022-12-10T01:58:47;42.90;;;19.60;;
55732;SDS011;41637;52.364;9.910;2022-12-10T02:01:32;43.70;;;20.10;;
55732;SDS011;41637;52.364;9.910;2022-12-10T02:15:18;39.50;;;19.90;;
55732;SDS011;41637;52.364;9.910;2022-12-10T02:17:51;40.90;;;19.60;;
55732;SDS011;41637;52.364;9.910;2022-12-10T02:23:12;40.20;;;18.30;;
55732;SDS011;41637;52.364;9.910;2022-12-10T02:25:48;38.00;;;16.90;;
55732;SDS011;41637;52.364;9.910;2022-12-10T02:28:45;35.50;;;17.40;;
55732;SDS011;41637;52.364;9.910;2022-12-10T02:31:23;39.90;;;18.30;;
55732;SDS011;41637;52.364;9.910;2022-12-10T02:33:55;36.30;;;18.10;;
55732;SDS011;41637;52.364;9.910;2022-12-10T02:36:25;35.40;;;17.90;;
55732;SDS011;41637;52.364;9.910;2022-12-10T02:38:56;37.60;;;18.90;;
55732;SDS011;41637;52.364;9.910;2022-12-10T02:41:26;39.50;;;19.50;;
55732;SDS011;41637;52.364;9.910;2022-12-10T02:43:59;40.30;;;18.80;;
55732;SDS011;41637;52.364;9.910;2022-12-10T02:46:29;35.00;;;17.30;;
55732;SDS011;41637;52.364;9.910;2022-12-10T02:48:58;41.40;;;17.30;;
55732;SDS011;41637;52.364;9.910;2022-12-10T02:51:28;38.60;;;17.90;;
55732;SDS011;41637;52.364;9.910;2022-12-10T02:53:58;37.00;;;17.90;;
55732;SDS011;41637;52.364;9.910;2022-12-10T02:56:28;40.70;;;18.20;;
55732;SDS011;41637;52.364;9.910;2022-12-10T02:59:15;41.90;;;18.60;;
55732;SDS011;41637;52.364;9.910;2022-12-10T03:04:40;43.00;;;19.20;;
55732;SDS011;41637;52.364;9.910;2022-12-10T03:07:10;43.80;;;17.80;;
55732;SDS011;41637;52.364;9.910;2022-12-10T03:09:51;45.40;;;19.00;;
55732;SDS011;41637;52.364;9.910;2022-12-10T03:12:24;46.30;;;18.00;;
55732;SDS011;41637;52.364;9.910;2022-12-10T03:15:02;44.20;;;18.80;;
55732;SDS011;41637;52.364;9.910;2022-12-10T03:17:31;50.30;;;19.20;;
55732;SDS011;41637;52.364;9.910;2022-12-10T03:19:58;47.30;;;18.20;;
55732;SDS011;41637;52.364;9.910;2022-12-10T03:22:27;44.90;;;18.40;;
55732;SDS011;41637;52.364;9.910;2022-12-10T03:24:55;46.30;;;19.10;;
55732;SDS011;41637;52.364;9.910;2022-12-10T03:27:24;43.10;;;18.10;;
55732;SDS011;41637;52.364;9.910;2022-12-10T03:29:54;49.00;;;19.20;;
55732;SDS011;41637;52.364;9.910;2022-12-10T03:32:24;45.60;;;18.30;;
55732;SDS011;41637;52.364;9.910;2022-12-10T03:34:53;45.60;;;19.20;;
55732;SDS011;41637;52.364;9.910;2022-12-10T03:37:23;37.60;;;16.40;;
55732;SDS011;41637;52.364;9.910;2022-12-10T03:39:51;44.10;;;18.70;;
55732;SDS011;41637;52.364;9.910;2022-12-10T03:42:18;41.40;;;17.00;;
55732;SDS011;41637;52.364;9.910;2022-12-10T03:44:45;37.20;;;15.60;;
55732;SDS011;41637;52.364;9.910;2022-12-10T03:47:12;31.00;;;13.80;;
55732;SDS011;41637;52.364;9.910;2022-12-10T03:49:40;35.80;;;15.80;;
55732;SDS011;41637;52.364;9.910;2022-12-10T03:52:08;33.80;;;16.30;;
55732;SDS011;41637;52.364;9.910;2022-12-10T03:54:35;28.70;;;13.90;;
55732;SDS011;41637;52.364;9.910;2022-12-10T03:57:02;28.80;;;13.80;;
55732;SDS011;41637;52.364;9.910;2022-12-10T03:59:29;30.80;;;14.80;;
55732;SDS011;41637;52.364;9.910;2022-12-10T04:01:55;30.30;;;14.40;;
55732;SDS011;41637;52.364;9.910;2022-12-10T04:04:21;26.80;;;12.00;;
55732;SDS011;41637;52.364;9.910;2022-12-10T04:06:48;26.20;;;12.60;;
55732;SDS011;41637;52.364;9.910;2022-12-10T04:09:15;30.50;;;14.30;;
55732;SDS011;41637;52.364;9.910;2022-12-10T04:11:42;28.10;;;13.10;;
55732;SDS011;41637;52.364;9.910;2022-12-10T04:14:09;28.50;;;13.20;;
55732;SDS011;41637;52.364;9.910;2022-12-10T04:16:56;30.30;;;14.30;;
55732;SDS011;41637;52.364;9.910;2022-12-10T04:19:23;31.30;;;14.80;;
55732;SDS011;41637;52.364;9.910;2022-12-10T04:21:50;29.10;;;13.40;;
55732;SDS011;41637;52.364;9.910;2022-12-10T04:24:36;28.70;;;13.70;;
55732;SDS011;41637;52.364;9.910;2022-12-10T04:27:26;30.30;;;14.50;;
55732;SDS011;41637;52.364;9.910;2022-12-10T04:30:01;27.60;;;13.40;;
55732;SDS011;41637;52.364;9.910;2022-12-10T04:32:29;23.60;;;11.40;;
55732;SDS011;41637;52.364;9.910;2022-12-10T04:34:56;27.40;;;13.20;;
55732;SDS011;41637;52.364;9.910;2022-12-10T04:37:23;22.70;;;11.20;;
55732;SDS011;41637;52.364;9.910;2022-12-10T04:39:50;24.10;;;12.70;;
55732;SDS011;41637;52.364;9.910;2022-12-10T04:42:17;22.10;;;11.80;;
55732;SDS011;41637;52.364;9.910;2022-12-10T04:44:44;21.60;;;11.60;;
55732;SDS011;41637;52.364;9.910;2022-12-10T04:47:11;23.40;;;11.90;;
55732;SDS011;41637;52.364;9.910;2022-12-10T04:49:38;18.90;;;10.10;;
55732;SDS011;41637;52.364;9.910;2022-12-10T04:52:06;18.70;;;10.80;;
55732;SDS011;41637;52.364;9.910;2022-12-10T04:54:34;21.60;;;10.60;;
55732;SDS011;41637;52.364;9.910;2022-12-10T04:57:04;24.40;;;12.50;;
55732;SDS011;41637;52.364;9.910;2022-12-10T04:59:31;20.50;;;11.20;;
55732;SDS011;41637;52.364;9.910;2022-12-10T05:01:58;22.10;;;10.70;;
55732;SDS011;41637;52.364;9.910;2022-12-10T05:04:24;18.70;;;9.20;;
55732;SDS011;41637;52.364;9.910;2022-12-10T05:06:51;19.10;;;10.10;;
55732;SDS011;41637;52.364;9.910;2022-12-10T05:09:17;20.40;;;10.50;;
55732;SDS011;41637;52.364;9.910;2022-12-10T05:11:44;20.30;;;10.80;;
55732;SDS011;41637;52.364;9.910;2022-12-10T05:14:11;20.30;;;10.70;;
55732;SDS011;41637;52.364;9.910;2022-12-10T05:16:39;20.40;;;10.50;;
55732;SDS011;41637;52.364;9.910;2022-12-10T05:19:07;18.00;;;9.70;;
55732;SDS011;41637;52.364;9.910;2022-12-10T05:21:34;18.40;;;9.60;;
55732;SDS011;41637;52.364;9.910;2022-12-10T05:24:19;18.30;;;10.50;;
55732;SDS011;41637;52.364;9.910;2022-12-10T05:26:46;19.80;;;11.00;;
55732;SDS011;41637;52.364;9.910;2022-12-10T05:29:17;18.20;;;9.20;;
55732;SDS011;41637;52.364;9.910;2022-12-10T05:31:44;19.50;;;10.10;;
55732;SDS011;41637;52.364;9.910;2022-12-10T05:34:11;18.00;;;10.10;;
55732;SDS011;41637;52.364;9.910;2022-12-10T05:36:37;17.50;;;9.40;;
55732;SDS011;41637;52.364;9.910;2022-12-10T05:39:04;17.80;;;9.30;;
55732;SDS011;41637;52.364;9.910;2022-12-10T05:41:31;15.90;;;8.90;;
55732;SDS011;41637;52.364;9.910;2022-12-10T05:44:01;20.00;;;9.70;;
55732;SDS011;41637;52.364;9.910;2022-12-10T05:46:29;21.00;;;10.90;;
55732;SDS011;41637;52.364;9.910;2022-12-10T05:48:58;19.30;;;10.70;;
55732;SDS011;41637;52.364;9.910;2022-12-10T05:51:27;16.90;;;9.10;;
55732;SDS011;41637;52.364;9.910;2022-12-10T05:53:56;17.10;;;9.50;;
55732;SDS011;41637;52.364;9.910;2022-12-10T05:56:24;16.60;;;8.80;;
55732;SDS011;41637;52.364;9.910;2022-12-10T05:58:53;17.00;;;9.40;;
55732;SDS011;41637;52.364;9.910;2022-12-10T06:01:22;17.30;;;9.30;;
55732;SDS011;41637;52.364;9.910;2022-12-10T06:03:50;19.90;;;10.40;;
55732;SDS011;41637;52.364;9.910;2022-12-10T06:06:25;19.20;;;10.40;;
55732;SDS011;41637;52.364;9.910;2022-12-10T06:08:54;17.40;;;9.40;;
55732;SDS011;41637;52.364;9.910;2022-12-10T06:11:22;17.90;;;9.20;;
55732;SDS011;41637;52.364;9.910;2022-12-10T06:13:49;16.70;;;8.80;;
55732;SDS011;41637;52.364;9.910;2022-12-10T06:16:21;17.90;;;9.60;;
55732;SDS011;41637;52.364;9.910;2022-12-10T06:18:49;18.80;;;9.60;;
55732;SDS011;41637;52.364;9.910;2022-12-10T06:21:16;16.80;;;8.70;;
55732;SDS011;41637;52.364;9.910;2022-12-10T06:23:43;20.90;;;11.60;;
55732;SDS011;41637;52.364;9.910;2022-12-10T06:26:11;21.10;;;12.10;;
55732;SDS011;41637;52.364;9.910;2022-12-10T06:28:40;20.10;;;11.20;;
55732;SDS011;41637;52.364;9.910;2022-12-10T06:31:07;21.70;;;11.50;;
55732;SDS011;41637;52.364;9.910;2022-12-10T06:33:33;24.60;;;12.10;;
55732;SDS011;41637;52.364;9.910;2022-12-10T06:36:02;25.00;;;13.00;;
55732;SDS011;41637;52.364;9.910;2022-12-10T06:38:34;27.50;;;13.90;;
55732;SDS011;41637;52.364;9.910;2022-12-10T06:41:03;29.40;;;14.10;;
55732;SDS011;41637;52.364;9.910;2022-12-10T06:43:31;28.50;;;13.60;;
55732;SDS011;41637;52.364;9.910;2022-12-10T06:45:58;30.50;;;15.10;;
55732;SDS011;41637;52.364;9.910;2022-12-10T06:48:24;29.20;;;13.90;;
55732;SDS011;41637;52.364;9.910;2022-12-10T06:50:51;29.80;;;14.80;;
55732;SDS011;41637;52.364;9.910;2022-12-10T06:53:17;27.20;;;13.30;;
55732;SDS011;41637;52.364;9.910;2022-12-10T06:55:44;31.60;;;14.30;;
55732;SDS011;41637;52.364;9.910;2022-12-10T06:58:10;30.60;;;14.80;;
55732;SDS011;41637;52.364;9.910;2022-12-10T07:00:37;30.30;;;15.40;;
55732;SDS011;41637;52.364;9.910;2022-12-10T07:03:03;28.10;;;13.90;;
55732;SDS011;41637;52.364;9.910;2022-12-10T07:05:30;27.90;;;14.00;;
55732;SDS011;41637;52.364;9.910;2022-12-10T07:07:57;26.70;;;13.40;;
55732;SDS011;41637;52.364;9.910;2022-12-10T07:10:23;30.20;;;13.90;;
55732;SDS011;41637;52.364;9.910;2022-12-10T07:12:50;28.00;;;13.60;;
55732;SDS011;41637;52.364;9.910;2022-12-10T07:15:16;30.50;;;13.70;;
55732;SDS011;41637;52.364;9.910;2022-12-10T07:17:43;28.70;;;13.90;;
55732;SDS011;41637;52.364;9.910;2022-12-10T07:20:09;26.40;;;13.50;;
55732;SDS011;41637;52.364;9.910;2022-12-10T07:22:38;28.60;;;13.70;;
55732;SDS011;41637;52.364;9.910;2022-12-10T07:25:05;24.90;;;13.10;;
55732;SDS011;41637;52.364;9.910;2022-12-10T07:27:31;25.60;;;13.20;;
55732;SDS011;41637;52.364;9.910;2022-12-10T07:29:58;26.90;;;13.20;;
55732;SDS011;41637;52.364;9.910;2022-12-10T07:32:26;26.60;;;13.30;;
55732;SDS011;41637;52.364;9.910;2022-12-10T07:34:53;27.60;;;13.70;;
55732;SDS011;41637;52.364;9.910;2022-12-10T07:37:19;28.40;;;14.10;;
55732;SDS011;41637;52.364;9.910;2022-12-10T07:39:46;24.00;;;12.80;;
55732;SDS011;41637;52.364;9.910;2022-12-10T07:42:12;25.80;;;13.20;;
55732;SDS011;41637;52.364;9.910;2022-12-10T07:44:38;25.70;;;12.80;;
55732;SDS011;41637;52.364;9.910;2022-12-10T07:47:05;26.70;;;12.60;;
55732;SDS011;41637;52.364;9.910;2022-12-10T07:49:31;26.60;;;12.80;;
55732;SDS011;41637;52.364;9.910;2022-12-10T07:51:58;26.00;;;13.00;;
55732;SDS011;41637;52.364;9.910;2022-12-10T07:54:24;30.20;;;14.40;;
55732;SDS011;41637;52.364;9.910;2022-12-10T07:56:50;28.30;;;14.00;;
55732;SDS011;41637;52.364;9.910;2022-12-10T07:59:17;29.90;;;14.50;;
55732;SDS011;41637;52.364;9.910;2022-12-10T08:01:43;29.80;;;14.60;;
55732;SDS011;41637;52.364;9.910;2022-12-10T08:04:10;30.00;;;14.80;;
55732;SDS011;41637;52.364;9.910;2022-12-10T08:06:36;30.70;;;14.70;;
55732;SDS011;41637;52.364;9.910;2022-12-10T08:09:03;33.00;;;15.80;;
55732;SDS011;41637;52.364;9.910;2022-12-10T08:11:29;32.00;;;16.30;;
55732;SDS011;41637;52.364;9.910;2022-12-10T08:13:55;30.10;;;16.10;;
55732;SDS011;41637;52.364;9.910;2022-12-10T08:16:24;28.60;;;14.80;;
55732;SDS011;41637;52.364;9.910;2022-12-10T08:18:53;27.90;;;14.90;;
55732;SDS011;41637;52.364;9.910;2022-12-10T08:21:23;32.90;;;15.20;;
55732;SDS011;41637;52.364;9.910;2022-12-10T08:23:51;30.00;;;15.40;;
55732;SDS011;41637;52.364;9.910;2022-12-10T08:26:21;32.00;;;16.20;;
55732;SDS011;41637;52.364;9.910;2022-12-10T08:28:50;31.10;;;14.70;;
55732;SDS011;41637;52.364;9.910;2022-12-10T08:31:18;30.40;;;15.20;;
55732;SDS011;41637;52.364;9.910;2022-12-10T08:33:46;32.00;;;16.00;;
55732;SDS011;41637;52.364;9.910;2022-12-10T08:36:14;29.90;;;14.20;;
55732;SDS011;41637;52.364;9.910;2022-12-10T08:38:42;30.50;;;16.10;;
55732;SDS011;41637;52.364;9.910;2022-12-10T08:41:10;28.80;;;14.40;;
55732;SDS011;41637;52.364;9.910;2022-12-10T08:43:40;31.00;;;14.60;;
55732;SDS011;41637;52.364;9.910;2022-12-10T08:46:09;32.50;;;15.50;;
55732;SDS011;41637;52.364;9.910;2022-12-10T08:48:37;31.10;;;14.60;;
55732;SDS011;41637;52.364;9.910;2022-12-10T08:51:05;29.30;;;15.00;;
55732;SDS011;41637;52.364;9.910;2022-12-10T08:53:33;30.50;;;15.60;;
55732;SDS011;41637;52.364;9.910;2022-12-10T08:56:00;32.00;;;15.40;;
55732;SDS011;41637;52.364;9.910;2022-12-10T08:58:26;30.10;;;14.50;;
55732;SDS011;41637;52.364;9.910;2022-12-10T09:00:53;28.90;;;14.30;;
55732;SDS011;41637;52.364;9.910;2022-12-10T09:03:19;27.40;;;14.10;;
55732;SDS011;41637;52.364;9.910;2022-12-10T09:05:46;29.00;;;14.90;;
55732;SDS011;41637;52.364;9.910;2022-12-10T09:08:12;30.20;;;14.40;;
55732;SDS011;41637;52.364;9.910;2022-12-10T09:10:39;28.80;;;13.90;;
55732;SDS011;41637;52.364;9.910;2022-12-10T09:13:07;28.70;;;13.80;;
55732;SDS011;41637;52.364;9.910;2022-12-10T09:15:33;26.20;;;13.80;;
55732;SDS011;41637;52.364;9.910;2022-12-10T09:18:00;26.00;;;13.50;;
55732;SDS011;41637;52.364;9.910;2022-12-10T09:20:26;25.90;;;13.30;;
55732;SDS011;41637;52.364;9.910;2022-12-10T09:22:53;27.40;;;13.10;;
55732;SDS011;41637;52.364;9.910;2022-12-10T09:25:19;26.20;;;13.40;;
55732;SDS011;41637;52.364;9.910;2022-12-10T09:27:47;24.50;;;12.80;;
55732;SDS011;41637;52.364;9.910;2022-12-10T09:30:15;26.30;;;13.90;;
55732;SDS011;41637;52.364;9.910;2022-12-10T09:32:42;28.70;;;14.60;;
55732;SDS011;41637;52.364;9.910;2022-12-10T09:35:08;28.60;;;14.00;;
55732;SDS011;41637;52.364;9.910;2022-12-10T09:37:34;27.30;;;13.60;;
55732;SDS011;41637;52.364;9.910;2022-12-10T09:40:01;24.40;;;12.60;;
55732;SDS011;41637;52.364;9.910;2022-12-10T09:45:24;23.90;;;11.60;;
55732;SDS011;41637;52.364;9.910;2022-12-10T09:53:53;23.50;;;12.40;;
55732;SDS011;41637;52.364;9.910;2022-12-10T09:56:34;22.90;;;11.70;;
55732;SDS011;41637;52.364;9.910;2022-12-10T09:59:51;20.40;;;11.10;;
55732;SDS011;41637;52.364;9.910;2022-12-10T10:04:30;22.30;;;11.30;;
55732;SDS011;41637;52.364;9.910;2022-12-10T10:06:56;21.40;;;11.50;;
55732;SDS011;41637;52.364;9.910;2022-12-10T10:09:24;23.20;;;11.90;;
55732;SDS011;41637;52.364;9.910;2022-12-10T10:11:50;20.90;;;11.50;;
55732;SDS011;41637;52.364;9.910;2022-12-10T10:14:27;20.10;;;11.20;;
55732;SDS011;41637;52.364;9.910;2022-12-10T10:17:00;21.40;;;11.70;;
55732;SDS011;41637;52.364;9.910;2022-12-10T10:19:33;20.10;;;11.10;;
55732;SDS011;41637;52.364;9.910;2022-12-10T10:22:01;23.30;;;12.30;;
55732;SDS011;41637;52.364;9.910;2022-12-10T10:24:34;22.50;;;11.80;;
55732;SDS011;41637;52.364;9.910;2022-12-10T10:29:50;25.00;;;14.10;;
55732;SDS011;41637;52.364;9.910;2022-12-10T10:35:02;25.00;;;13.10;;
55732;SDS011;41637;52.364;9.910;2022-12-10T10:37:31;20.00;;;10.90;;
55732;SDS011;41637;52.364;9.910;2022-12-10T10:40:06;20.20;;;10.80;;
55732;SDS011;41637;52.364;9.910;2022-12-10T10:42:48;19.10;;;9.90;;
55732;SDS011;41637;52.364;9.910;2022-12-10T10:50:38;19.70;;;10.70;;
55732;SDS011;41637;52.364;9.910;2022-12-10T10:55:51;22.40;;;11.80;;
55732;SDS011;41637;52.364;9.910;2022-12-10T10:58:21;22.90;;;11.90;;
55732;SDS011;41637;52.364;9.910;2022-12-10T11:00:53;22.60;;;12.40;;
55732;SDS011;41637;52.364;9.910;2022-12-10T11:03:34;22.50;;;12.10;;
55732;SDS011;41637;52.364;9.910;2022-12-10T11:06:05;25.20;;;12.90;;
55732;SDS011;41637;52.364;9.910;2022-12-10T11:08:34;24.90;;;13.40;;
55732;SDS011;41637;52.364;9.910;2022-12-10T11:11:04;26.30;;;12.80;;
55732;SDS011;41637;52.364;9.910;2022-12-10T11:13:36;25.90;;;12.20;;
55732;SDS011;41637;52.364;9.910;2022-12-10T11:16:37;27.70;;;13.50;;
55732;SDS011;41637;52.364;9.910;2022-12-10T11:19:01;23.90;;;11.90;;
55732;SDS011;41637;52.364;9.910;2022-12-10T11:21:30;25.90;;;12.60;;
55732;SDS011;41637;52.364;9.910;2022-12-10T11:23:59;25.50;;;12.40;;
55732;SDS011;41637;52.364;9.910;2022-12-10T11:32:11;25.50;;;11.60;;
55732;SDS011;41637;52.364;9.910;2022-12-10T11:35:15;28.20;;;13.00;;
55732;SDS011;41637;52.364;9.910;2022-12-10T11:49:01;31.60;;;16.30;;
55732;SDS011;41637;52.364;9.910;2022-12-10T11:55:13;33.20;;;17.50;;
55732;SDS011;41637;52.364;9.910;2022-12-10T12:00:55;27.80;;;14.70;;
55732;SDS011;41637;52.364;9.910;2022-12-10T12:14:46;28.30;;;13.50;;
55732;SDS011;41637;52.364;9.910;2022-12-10T12:17:23;26.10;;;13.40;;
55732;SDS011;41637;52.364;9.910;2022-12-10T12:20:19;26.70;;;13.10;;
55732;SDS011;41637;52.364;9.910;2022-12-10T12:26:06;28.50;;;14.00;;
55732;SDS011;41637;52.364;9.910;2022-12-10T12:31:22;24.40;;;12.00;;
55732;SDS011;41637;52.364;9.910;2022-12-10T12:34:02;24.80;;;12.90;;
55732;SDS011;41637;52.364;9.910;2022-12-10T12:36:48;30.90;;;13.60;;
55732;SDS011;41637;52.364;9.910;2022-12-10T12:42:26;30.30;;;14.10;;
55732;SDS011;41637;52.364;9.910;2022-12-10T12:50:45;29.00;;;13.80;;
55732;SDS011;41637;52.364;9.910;2022-12-10T12:53:21;30.20;;;13.40;;
55732;SDS011;41637;52.364;9.910;2022-12-10T13:04:28;29.70;;;14.30;;
55732;SDS011;41637;52.364;9.910;2022-12-10T13:09:50;31.10;;;15.60;;
55732;SDS011;41637;52.364;9.910;2022-12-10T13:15:20;29.80;;;14.20;;
55732;SDS011;41637;52.364;9.910;2022-12-10T13:23:50;31.10;;;15.60;;
55732;SDS011;41637;52.364;9.910;2022-12-10T13:26:31;29.70;;;14.80;;
55732;SDS011;41637;52.364;9.910;2022-12-10T13:29:12;31.60;;;15.60;;
55732;SDS011;41637;52.364;9.910;2022-12-10T13:31:56;26.40;;;14.60;;
55732;SDS011;41637;52.364;9.910;2022-12-10T13:34:33;29.80;;;15.50;;
55732;SDS011;41637;52.364;9.910;2022-12-10T13:45:02;26.90;;;13.50;;
55732;SDS011;41637;52.364;9.910;2022-12-10T13:53:16;26.00;;;13.90;;
55732;SDS011;41637;52.364;9.910;2022-12-10T13:56:02;26.60;;;14.80;;
55732;SDS011;41637;52.364;9.910;2022-12-10T14:06:42;28.00;;;15.70;;
55732;SDS011;41637;52.364;9.910;2022-12-10T14:09:17;29.20;;;15.00;;
55732;SDS011;41637;52.364;9.910;2022-12-10T14:11:48;27.50;;;14.40;;
55732;SDS011;41637;52.364;9.910;2022-12-10T14:14:28;27.10;;;15.40;;
55732;SDS011;41637;52.364;9.910;2022-12-10T14:17:01;26.30;;;15.00;;
55732;SDS011;41637;52.364;9.910;2022-12-10T14:19:31;27.10;;;15.20;;
55732;SDS011;41637;52.364;9.910;2022-12-10T14:22:07;28.10;;;15.10;;
55732;SDS011;41637;52.364;9.910;2022-12-10T14:24:39;32.40;;;18.90;;
55732;SDS011;41637;52.364;9.910;2022-12-10T14:27:12;35.90;;;18.00;;
55732;SDS011;41637;52.364;9.910;2022-12-10T14:29:44;31.20;;;16.60;;
55732;SDS011;41637;52.364;9.910;2022-12-10T14:32:15;26.80;;;15.40;;
55732;SDS011;41637;52.364;9.910;2022-12-10T14:34:53;28.20;;;15.60;;
55732;SDS011;41637;52.364;9.910;2022-12-10T14:37:27;27.20;;;15.60;;
55732;SDS011;41637;52.364;9.910;2022-12-10T14:39:57;25.40;;;14.30;;
55732;SDS011;41637;52.364;9.910;2022-12-10T14:42:24;32.10;;;18.30;;
55732;SDS011;41637;52.364;9.910;2022-12-10T14:45:00;34.00;;;18.70;;
55732;SDS011;41637;52.364;9.910;2022-12-10T14:47:37;31.30;;;17.20;;
55732;SDS011;41637;52.364;9.910;2022-12-10T14:50:15;28.90;;;16.20;;
55732;SDS011;41637;52.364;9.910;2022-12-10T14:52:44;28.70;;;16.60;;
55732;SDS011;41637;52.364;9.910;2022-12-10T14:55:17;28.00;;;15.20;;
55732;SDS011;41637;52.364;9.910;2022-12-10T15:00:25;29.30;;;16.40;;
55732;SDS011;41637;52.364;9.910;2022-12-10T15:02:53;27.80;;;15.50;;
55732;SDS011;41637;52.364;9.910;2022-12-10T15:05:29;28.00;;;15.30;;
55732;SDS011;41637;52.364;9.910;2022-12-10T15:07:59;26.30;;;15.10;;
55732;SDS011;41637;52.364;9.910;2022-12-10T15:10:43;28.70;;;15.60;;
55732;SDS011;41637;52.364;9.910;2022-12-10T15:13:19;28.00;;;15.30;;
55732;SDS011;41637;52.364;9.910;2022-12-10T15:15:52;30.50;;;15.70;;
55732;SDS011;41637;52.364;9.910;2022-12-10T15:18:20;34.30;;;18.10;;
55732;SDS011;41637;52.364;9.910;2022-12-10T15:20:54;31.40;;;17.30;;
55732;SDS011;41637;52.364;9.910;2022-12-10T15:26:00;30.40;;;15.70;;
55732;SDS011;41637;52.364;9.910;2022-12-10T15:28:47;29.10;;;15.90;;
55732;SDS011;41637;52.364;9.910;2022-12-10T15:31:20;31.40;;;17.40;;
55732;SDS011;41637;52.364;9.910;2022-12-10T15:33:57;31.00;;;16.30;;
55732;SDS011;41637;52.364;9.910;2022-12-10T15:38:56;28.50;;;14.80;;
55732;SDS011;41637;52.364;9.910;2022-12-10T15:41:32;28.40;;;15.70;;
55732;SDS011;41637;52.364;9.910;2022-12-10T15:44:06;27.00;;;15.00;;
55732;SDS011;41637;52.364;9.910;2022-12-10T15:46:47;29.90;;;15.20;;
55732;SDS011;41637;52.364;9.910;2022-12-10T15:49:17;31.10;;;16.10;;
55732;SDS011;41637;52.364;9.910;2022-12-10T15:51:44;28.10;;;15.60;;
55732;SDS011;41637;52.364;9.910;2022-12-10T15:54:20;28.10;;;15.80;;
55732;SDS011;41637;52.364;9.910;2022-12-10T15:56:48;32.40;;;19.10;;
55732;SDS011;41637;52.364;9.910;2022-12-10T15:59:15;32.30;;;17.50;;
55732;SDS011;41637;52.364;9.910;2022-12-10T16:01:41;33.20;;;17.50;;
55732;SDS011;41637;52.364;9.910;2022-12-10T16:04:08;30.40;;;17.90;;
55732;SDS011;41637;52.364;9.910;2022-12-10T16:06:35;29.00;;;17.00;;
55732;SDS011;41637;52.364;9.910;2022-12-10T16:09:01;31.60;;;17.00;;
55732;SDS011;41637;52.364;9.910;2022-12-10T16:11:27;30.50;;;17.50;;
55732;SDS011;41637;52.364;9.910;2022-12-10T16:13:54;31.10;;;16.70;;
55732;SDS011;41637;52.364;9.910;2022-12-10T16:16:23;32.50;;;17.40;;
55732;SDS011;41637;52.364;9.910;2022-12-10T16:18:50;31.20;;;17.60;;
55732;SDS011;41637;52.364;9.910;2022-12-10T16:21:17;30.80;;;16.70;;
55732;SDS011;41637;52.364;9.910;2022-12-10T16:23:44;31.30;;;17.50;;
55732;SDS011;41637;52.364;9.910;2022-12-10T16:26:20;31.70;;;17.60;;
55732;SDS011;41637;52.364;9.910;2022-12-10T16:28:48;34.10;;;18.50;;
55732;SDS011;41637;52.364;9.910;2022-12-10T16:31:18;33.00;;;18.70;;
55732;SDS011;41637;52.364;9.910;2022-12-10T16:33:46;33.40;;;18.20;;
55732;SDS011;41637;52.364;9.910;2022-12-10T16:36:14;30.00;;;16.80;;
55732;SDS011;41637;52.364;9.910;2022-12-10T16:38:41;34.10;;;19.10;;
55732;SDS011;41637;52.364;9.910;2022-12-10T16:41:18;32.90;;;18.40;;
55732;SDS011;41637;52.364;9.910;2022-12-10T16:43:47;31.50;;;17.90;;
55732;SDS011;41637;52.364;9.910;2022-12-10T16:46:13;30.90;;;17.30;;
55732;SDS011;41637;52.364;9.910;2022-12-10T16:48:40;31.00;;;17.00;;
55732;SDS011;41637;52.364;9.910;2022-12-10T16:53:57;30.50;;;17.40;;
55732;SDS011;41637;52.364;9.910;2022-12-10T16:56:24;30.20;;;16.70;;
55732;SDS011;41637;52.364;9.910;2022-12-10T16:58:50;30.20;;;17.30;;
55732;SDS011;41637;52.364;9.910;2022-12-10T17:01:21;31.60;;;17.60;;
55732;SDS011;41637;52.364;9.910;2022-12-10T17:03:54;31.70;;;17.70;;
55732;SDS011;41637;52.364;9.910;2022-12-10T17:06:21;32.80;;;17.50;;
55732;SDS011;41637;52.364;9.910;2022-12-10T17:08:48;31.10;;;17.90;;